Parandowski — 9HA4641 — position and weather

sailwx.info

Track history (hours):
 
Tides and Currents Weather Stations Pressure Air Temp Water Temp Dewpoint Dewpoint Depression Visibility Wind Speed Wind Dir Waves Ship Positions

Parandowski

Last reported at 2018-May-16 20:14 UTC. Time now 2018-Jun-21 19:48 UTC.
Position N 24°49' E 066°58'.
Warning: this ship's position is 35 days out of date.

Length 200 m; draft 10.5 m.

Type: Ship. MMSI: 248403000.

Date/timePositionNaut miles runAvg speedWind from/ knotsBaromVisibWave heightAir tempDewpointWater temp
2018-May-16 20:14N 24°49' E 066°58'0 0.0
2018-May-16 20:00N 24°49' E 066°58'6 1.9
2018-May-16 17:09N 24°44' E 066°57'211.8
2018-May-16 16:57N 24°42' E 066°56'1013.5
2018-May-16 16:12N 24°32' E 066°56'17513.9
2018-May-16 03:35N 21°50' E 068°11'212.8
2018-May-16 03:24N 21°48' E 068°13'512.6
2018-May-16 02:58N 21°44' E 068°16'612.6
2018-May-16 02:28N 21°38' E 068°19'612.4
2018-May-16 02:00N 21°33' E 068°22'712.7
2018-May-16 01:30N 21°28' E 068°26'1512.8
2018-May-16 00:19N 21°15' E 068°35'412.5
2018-May-16 00:00N 21°12' E 068°37'612.3
2018-May-15 23:29N 21°07' E 068°41'612.2
2018-May-15 22:59N 21°01' E 068°43'812.1
2018-May-15 22:19N 20°54' E 068°47'412.2
2018-May-15 22:00N 20°50' E 068°49'612.3
2018-May-15 21:30N 20°45' E 068°52'712.4
2018-May-15 20:57N 20°39' E 068°56'712.5
2018-May-15 20:24N 20°33' E 068°60'712.7
2018-May-15 19:49N 20°27' E 069°04'412.8
2018-May-15 19:29N 20°23' E 069°06'912.9
2018-May-15 18:46N 20°15' E 069°11'1012.7
2018-May-15 17:57N 20°06' E 069°17'612.7
2018-May-15 17:28N 20°01' E 069°20'1112.5
2018-May-15 16:35N 19°52' E 069°26'212.5
2018-May-15 16:26N 19°50' E 069°27'612.3
2018-May-15 15:59N 19°45' E 069°31'612.6
2018-May-15 15:30N 19°40' E 069°34'612.8
2018-May-15 15:00N 19°35' E 069°38'712.8
2018-May-15 14:29N 19°29' E 069°41'712.7
2018-May-15 13:56N 19°23' E 069°45'612.7
2018-May-15 13:30N 19°18' E 069°48'612.7
2018-May-15 13:00N 19°13' E 069°51'612.8
2018-May-15 12:30N 19°07' E 069°54'712.9
2018-May-15 11:59N 19°01' E 069°58'612.8
2018-May-15 11:30N 18°56' E 070°01'713.0
2018-May-15 11:00N 18°50' E 070°05'712.9
2018-May-15 10:29N 18°45' E 070°08'612.9
2018-May-15 10:00N 18°39' E 070°12'812.8
2018-May-15 09:22N 18°33' E 070°16'812.7
2018-May-15 08:43N 18°25' E 070°21'312.9
2018-May-15 08:29N 18°23' E 070°22'713.2
2018-May-15 07:59N 18°17' E 070°26'713.1
2018-May-15 07:29N 18°11' E 070°29'613.1
2018-May-15 06:59N 18°06' E 070°33'613.1
2018-May-15 06:30N 18°00' E 070°36'813.2
2018-May-15 05:55N 17°54' E 070°40'613.1
2018-May-15 05:26N 17°48' E 070°43'713.5
2018-May-15 04:56N 17°42' E 070°47'613.4
2018-May-15 04:30N 17°38' E 070°50'713.2
2018-May-15 03:59N 17°32' E 070°54'613.1
2018-May-15 03:29N 17°26' E 070°57'712.9
2018-May-15 02:58N 17°20' E 071°00'813.0
2018-May-15 02:19N 17°13' E 071°05'512.7
2018-May-15 01:54N 17°08' E 071°08'512.6
2018-May-15 01:30N 17°04' E 071°11'8112.9
2018-May-14 19:15N 15°54' E 071°53'312.4
2018-May-14 18:58N 15°52' E 071°55'1612.4
2018-May-14 17:42N 15°38' E 072°04'  
2018-May-07 18:03N 01°35' E 102°58'114.5
2018-May-07 17:58N 01°35' E 102°59'713.6
2018-May-07 17:26N 01°31' E 103°06'613.7
2018-May-07 16:59N 01°27' E 103°10'714.1
2018-May-07 16:30N 01°22' E 103°15'814.5
2018-May-07 15:59N 01°17' E 103°21'714.9
2018-May-07 15:30N 01°14' E 103°27'815.3
2018-May-07 14:59N 01°12' E 103°35'714.0
2018-May-07 14:31N 01°10' E 103°41'713.4
2018-May-07 14:00N 01°10' E 103°48'816.0
2018-May-07 13:30N 01°14' E 103°55'714.4
2018-May-07 13:00N 01°16' E 104°02'714.5
2018-May-07 12:30N 01°17' E 104°09'714.6
2018-May-07 11:59N 01°18' E 104°17'713.9
2018-May-07 11:30N 01°21' E 104°23'713.8
2018-May-07 10:59N 01°26' E 104°28'  
Track history (hours):
 
Tides and Currents Weather Stations Pressure Air Temp Water Temp Dewpoint Dewpoint Depression Visibility Wind Speed Wind Dir Waves Ship Positions

Parandowski

Last reported at 2018-May-16 20:14 UTC. Time now 2018-Jun-21 19:48 UTC.
Position N 24°49' E 066°58'.
Warning: this ship's position is 35 days out of date.

Length 200 m; draft 10.5 m.

Type: Ship. MMSI: 248403000.

Date/timePositionNaut miles runAvg speedWind from/ knotsBaromVisibWave heightAir tempDewpointWater temp
2018-May-16 20:14N 24°49' E 066°58'0 0.0
2018-May-16 20:00N 24°49' E 066°58'6 1.9
2018-May-16 17:09N 24°44' E 066°57'211.8
2018-May-16 16:57N 24°42' E 066°56'1013.5
2018-May-16 16:12N 24°32' E 066°56'17513.9
2018-May-16 03:35N 21°50' E 068°11'212.8
2018-May-16 03:24N 21°48' E 068°13'512.6
2018-May-16 02:58N 21°44' E 068°16'612.6
2018-May-16 02:28N 21°38' E 068°19'612.4
2018-May-16 02:00N 21°33' E 068°22'712.7
2018-May-16 01:30N 21°28' E 068°26'1512.8
2018-May-16 00:19N 21°15' E 068°35'412.5
2018-May-16 00:00N 21°12' E 068°37'612.3
2018-May-15 23:29N 21°07' E 068°41'612.2
2018-May-15 22:59N 21°01' E 068°43'812.1
2018-May-15 22:19N 20°54' E 068°47'412.2
2018-May-15 22:00N 20°50' E 068°49'612.3
2018-May-15 21:30N 20°45' E 068°52'712.4
2018-May-15 20:57N 20°39' E 068°56'712.5
2018-May-15 20:24N 20°33' E 068°60'712.7
2018-May-15 19:49N 20°27' E 069°04'412.8
2018-May-15 19:29N 20°23' E 069°06'912.9
2018-May-15 18:46N 20°15' E 069°11'1012.7
2018-May-15 17:57N 20°06' E 069°17'612.7
2018-May-15 17:28N 20°01' E 069°20'1112.5
2018-May-15 16:35N 19°52' E 069°26'212.5
2018-May-15 16:26N 19°50' E 069°27'612.3
2018-May-15 15:59N 19°45' E 069°31'612.6
2018-May-15 15:30N 19°40' E 069°34'612.8
2018-May-15 15:00N 19°35' E 069°38'712.8
2018-May-15 14:29N 19°29' E 069°41'712.7
2018-May-15 13:56N 19°23' E 069°45'612.7
2018-May-15 13:30N 19°18' E 069°48'612.7
2018-May-15 13:00N 19°13' E 069°51'612.8
2018-May-15 12:30N 19°07' E 069°54'712.9
2018-May-15 11:59N 19°01' E 069°58'612.8
2018-May-15 11:30N 18°56' E 070°01'713.0
2018-May-15 11:00N 18°50' E 070°05'712.9
2018-May-15 10:29N 18°45' E 070°08'612.9
2018-May-15 10:00N 18°39' E 070°12'812.8
2018-May-15 09:22N 18°33' E 070°16'812.7
2018-May-15 08:43N 18°25' E 070°21'312.9
2018-May-15 08:29N 18°23' E 070°22'713.2
2018-May-15 07:59N 18°17' E 070°26'713.1
2018-May-15 07:29N 18°11' E 070°29'613.1
2018-May-15 06:59N 18°06' E 070°33'613.1
2018-May-15 06:30N 18°00' E 070°36'813.2
2018-May-15 05:55N 17°54' E 070°40'613.1
2018-May-15 05:26N 17°48' E 070°43'713.5
2018-May-15 04:56N 17°42' E 070°47'613.4
2018-May-15 04:30N 17°38' E 070°50'713.2
2018-May-15 03:59N 17°32' E 070°54'613.1
2018-May-15 03:29N 17°26' E 070°57'712.9
2018-May-15 02:58N 17°20' E 071°00'813.0
2018-May-15 02:19N 17°13' E 071°05'512.7
2018-May-15 01:54N 17°08' E 071°08'512.6
2018-May-15 01:30N 17°04' E 071°11'8112.9
2018-May-14 19:15N 15°54' E 071°53'312.4
2018-May-14 18:58N 15°52' E 071°55'1612.4
2018-May-14 17:42N 15°38' E 072°04'  
2018-May-07 18:03N 01°35' E 102°58'114.5
2018-May-07 17:58N 01°35' E 102°59'713.6
2018-May-07 17:26N 01°31' E 103°06'613.7
2018-May-07 16:59N 01°27' E 103°10'714.1
2018-May-07 16:30N 01°22' E 103°15'814.5
2018-May-07 15:59N 01°17' E 103°21'714.9
2018-May-07 15:30N 01°14' E 103°27'815.3
2018-May-07 14:59N 01°12' E 103°35'714.0
2018-May-07 14:31N 01°10' E 103°41'713.4
2018-May-07 14:00N 01°10' E 103°48'816.0
2018-May-07 13:30N 01°14' E 103°55'714.4
2018-May-07 13:00N 01°16' E 104°02'714.5
2018-May-07 12:30N 01°17' E 104°09'714.6
2018-May-07 11:59N 01°18' E 104°17'713.9
2018-May-07 11:30N 01°21' E 104°23'713.8
2018-May-07 10:59N 01°26' E 104°28'  

Dump ship's entire track history